Time;durP1;ratioP1;P1;durP2;ratioP2;P2;SDS_P1;SDS_P2;PMS_P1;PMS_P2;Temp;Humidity;BMP_temperature;BMP_pressure;BME280_temperature;BME280_humidity;BME280_pressure;Samples;Min_cycle;Max_cycle;Signal;HPM_P1;HPM_P2
2023/01/03 00:00:50;;;;;;;42.80;26.35;;;;;;;2.15;72.45;101798.95;1708817;82;27616;-60
2023/01/03 00:03:19;;;;;;;45.15;25.30;;;;;;;2.10;72.24;101798.27;1706234;83;25687;-60
2023/01/03 00:05:48;;;;;;;46.15;26.95;;;;;;;2.01;72.25;101811.41;1712391;82;25711;-60
2023/01/03 00:08:15;;;;;;;43.52;27.02;;;;;;;1.94;72.33;101803.70;1768292;79;25894;-59
2023/01/03 00:10:42;;;;;;;43.73;26.15;;;;;;;1.91;72.56;101803.84;1769248;79;27289;-59
2023/01/03 00:13:09;;;;;;;45.20;28.10;;;;;;;1.91;72.66;101807.34;1765526;79;27923;-59
2023/01/03 00:15:37;;;;;;;47.88;29.30;;;;;;;1.91;72.75;101801.19;1759909;80;27247;-59
2023/01/03 00:18:05;;;;;;;49.08;29.63;;;;;;;1.90;72.82;101806.08;1751336;80;25786;-60
2023/01/03 00:20:33;;;;;;;44.75;27.27;;;;;;;1.90;72.82;101808.26;1737593;80;25801;-61
2023/01/03 00:23:01;;;;;;;49.58;27.67;;;;;;;1.88;72.79;101804.82;1757438;79;25810;-60
2023/01/03 00:25:28;;;;;;;43.40;27.10;;;;;;;1.86;72.71;101807.50;1772365;79;28180;-59
2023/01/03 00:27:56;;;;;;;51.15;29.63;;;;;;;1.85;72.61;101805.77;1778708;79;26039;-60
2023/01/03 00:30:24;;;;;;;51.48;29.80;;;;;;;1.82;72.49;101811.20;1775499;79;25742;-60
2023/01/03 00:32:51;;;;;;;45.90;27.93;;;;;;;1.78;72.40;101804.26;1756360;79;27897;-60
2023/01/03 00:35:18;;;;;;;49.03;29.20;;;;;;;1.70;72.39;101802.34;1770601;80;25697;-60
2023/01/03 00:37:45;;;;;;;50.12;29.05;;;;;;;1.68;72.64;101810.36;1774136;80;28295;-59
2023/01/03 00:40:12;;;;;;;43.20;26.93;;;;;;;1.69;72.71;101808.56;1736222;82;25834;-59
2023/01/03 00:45:25;;;;;;;50.83;28.80;;;;;;;1.61;72.63;101812.83;1706091;83;25794;-60
2023/01/03 00:47:52;;;;;;;52.35;30.43;;;;;;;1.56;72.69;101807.67;1704684;84;25826;-60
2023/01/03 00:50:19;;;;;;;47.05;29.57;;;;;;;1.56;72.84;101802.37;1704714;84;27405;-60
2023/01/03 00:52:46;;;;;;;47.17;29.80;;;;;;;1.53;72.69;101803.79;1704840;83;25925;-60
2023/01/03 00:55:13;;;;;;;46.90;30.40;;;;;;;1.53;72.92;101805.11;1704684;84;25732;-59
2023/01/03 00:57:40;;;;;;;50.75;30.05;;;;;;;1.56;73.11;101801.48;1704501;83;25835;-60
2023/01/03 01:00:09;;;;;;;52.08;31.77;;;;;;;1.59;73.07;101803.16;1704591;83;25656;-60
2023/01/03 01:02:36;;;;;;;53.08;32.58;;;;;;;1.56;73.00;101806.34;1704980;84;27438;-61
2023/01/03 01:05:07;;;;;;;54.53;32.03;;;;;;;1.54;73.09;101802.87;1710220;83;25780;-60
2023/01/03 01:07:34;;;;;;;50.10;31.87;;;;;;;1.54;73.23;101804.20;1715860;83;25767;-59
2023/01/03 01:10:01;;;;;;;53.85;31.25;;;;;;;1.55;73.30;101802.41;1716792;82;25731;-60
2023/01/03 01:12:28;;;;;;;50.38;31.10;;;;;;;1.54;73.27;101803.31;1725916;82;25707;-59
2023/01/03 01:14:55;;;;;;;48.15;31.07;;;;;;;1.54;73.29;101804.64;1747154;82;27638;-59
2023/01/03 01:17:22;;;;;;;49.83;29.75;;;;;;;1.55;73.34;101795.33;1747490;82;25786;-59
2023/01/03 01:19:48;;;;;;;49.08;30.95;;;;;;;1.56;73.23;101801.48;1747174;82;26602;-59
2023/01/03 01:22:15;;;;;;;52.30;31.80;;;;;;;1.56;73.20;101797.51;1746652;81;26671;-60
2023/01/03 01:24:42;;;;;;;52.05;32.08;;;;;;;1.54;73.18;101789.61;1746985;82;26477;-60
2023/01/03 01:27:09;;;;;;;50.60;30.43;;;;;;;1.56;73.19;101786.45;1747355;82;27480;-59
2023/01/03 01:29:38;;;;;;;50.75;31.73;;;;;;;1.56;73.20;101775.84;1742308;82;25974;-60
2023/01/03 01:32:05;;;;;;;52.90;31.75;;;;;;;1.54;73.06;101777.68;1737577;82;25822;-59
2023/01/03 01:34:32;;;;;;;61.33;36.60;;;;;;;1.51;72.97;101776.92;1766394;80;25891;-59
2023/01/03 01:36:59;;;;;;;49.03;32.15;;;;;;;1.49;73.05;101772.13;1722159;83;25778;-60
2023/01/03 01:39:28;;;;;;;52.30;31.00;;;;;;;1.49;73.02;101786.70;1772116;80;27462;-60
2023/01/03 01:45:02;;;;;;;51.53;31.73;;;;;;;1.46;73.28;101767.80;1772391;80;25774;-60
2023/01/03 01:47:41;;;;;;;50.20;29.95;;;;;;;1.48;73.54;101766.41;1772316;80;26650;-60
2023/01/03 01:50:34;;;;;;;52.90;32.35;;;;;;;1.50;73.61;101764.10;1778527;80;25721;-60
2023/01/03 01:53:27;;;;;;;54.13;32.40;;;;;;;1.53;73.49;101764.45;1775642;80;28627;-60
2023/01/03 01:56:03;;;;;;;56.45;33.85;;;;;;;1.54;73.45;101755.14;1738706;82;25847;-60
2023/01/03 01:58:35;;;;;;;63.15;36.73;;;;;;;1.56;73.41;101761.26;1741676;82;25767;-60
2023/01/03 02:01:09;;;;;;;54.63;34.05;;;;;;;1.55;73.33;101769.25;1737661;82;25882;-60
2023/01/03 02:03:37;;;;;;;49.80;31.55;;;;;;;1.56;73.37;101773.20;1735312;82;25683;-60
2023/01/03 02:06:07;;;;;;;51.53;30.70;;;;;;;1.60;73.34;101759.80;1734912;82;27467;-60
2023/01/03 02:08:34;;;;;;;49.45;30.08;;;;;;;1.63;73.23;101769.84;1759549;80;25782;-60
2023/01/03 02:11:41;;;;;;;51.55;30.25;;;;;;;1.64;73.19;101773.38;1774456;80;25707;-60
2023/01/03 02:14:46;;;;;;;48.65;29.27;;;;;;;1.64;73.22;101776.89;1774297;80;25776;-60
2023/01/03 02:17:44;;;;;;;48.33;30.17;;;;;;;1.68;73.25;101782.95;1774559;80;25804;-60
2023/01/03 02:20:44;;;;;;;48.13;31.27;;;;;;;1.71;73.32;101789.01;1756862;80;27509;-61
2023/01/03 02:23:19;;;;;;;50.12;31.17;;;;;;;1.71;73.23;101787.69;1773979;80;25715;-60
2023/01/03 02:26:16;;;;;;;59.98;33.23;;;;;;;1.70;73.12;101786.42;1774259;80;25706;-60
2023/01/03 02:29:15;;;;;;;67.80;35.30;;;;;;;1.66;73.21;101787.47;1767369;80;26037;-60
2023/01/03 02:32:19;;;;;;;55.00;30.92;;;;;;;1.64;73.21;101786.64;1774591;80;25639;-61
2023/01/03 02:35:03;;;;;;;57.25;32.60;;;;;;;1.62;73.35;101786.67;1700925;82;28264;-59
2023/01/03 02:37:38;;;;;;;65.80;34.73;;;;;;;1.55;73.20;101791.79;1758394;79;25710;-60
2023/01/03 02:40:16;;;;;;;56.68;31.10;;;;;;;1.47;73.05;101793.84;1758485;81;25678;-60
2023/01/03 02:42:56;;;;;;;51.80;31.35;;;;;;;1.41;73.23;101790.94;1699302;83;26203;-60
2023/01/03 02:45:50;;;;;;;51.20;29.20;;;;;;;1.39;73.48;101791.47;1712880;83;25778;-60
2023/01/03 02:48:34;;;;;;;47.15;30.97;;;;;;;1.36;73.47;101790.23;1734272;82;27562;-60
2023/01/03 02:51:07;;;;;;;50.33;29.65;;;;;;;1.32;73.43;101793.89;1719099;83;25687;-60
2023/01/03 02:53:47;;;;;;;47.03;29.70;;;;;;;1.28;73.42;101785.18;1720872;83;25679;-60
2023/01/03 02:56:22;;;;;;;48.42;29.60;;;;;;;1.25;73.59;101794.58;1721972;83;25794;-60
2023/01/03 02:58:54;;;;;;;45.78;29.20;;;;;;;1.22;73.48;101782.74;1722456;83;26092;-60
2023/01/03 03:01:23;;;;;;;50.20;31.80;;;;;;;1.21;73.61;101798.23;1722087;83;27483;-59
2023/01/03 03:03:50;;;;;;;53.92;31.50;;;;;;;1.19;73.65;101789.46;1722214;83;25693;-60
2023/01/03 03:06:44;;;;;;;49.85;29.05;;;;;;;1.17;73.62;101790.84;1712853;83;25507;-59
2023/01/03 03:09:11;;;;;;;46.37;27.45;;;;;;;1.16;73.74;101793.09;1714737;83;25715;-61
2023/01/03 03:14:44;;;;;;;47.70;31.00;;;;;;;1.08;73.80;101792.00;1743591;81;27648;-61
2023/01/03 03:17:13;;;;;;;;;;;;;;;1.08;74.00;101793.80;1746906;80;25803;-60
2023/01/03 03:25:50;;;;;;;51.37;32.23;;;;;;;1.03;73.98;101801.05;1736793;82;25740;-60
2023/01/03 03:28:34;;;;;;;46.13;28.57;;;;;;;1.03;74.21;101813.81;1748564;81;27494;-61
2023/01/03 03:31:24;;;;;;;48.95;29.32;;;;;;;1.05;74.34;101813.31;1750775;81;25482;-60
2023/01/03 03:34:01;;;;;;;51.33;30.68;;;;;;;1.08;74.04;101825.12;1741908;81;25711;-60
2023/01/03 03:36:59;;;;;;;58.02;32.78;;;;;;;1.09;74.39;101829.98;1770015;80;25944;-61
2023/01/03 03:45:54;;;;;;;47.95;29.50;;;;;;;1.02;74.38;101842.55;1685899;84;25925;-60
2023/01/03 03:48:29;;;;;;;57.48;32.83;;;;;;;0.99;74.27;101836.02;1685078;84;25773;-60
2023/01/03 03:51:13;;;;;;;56.65;32.98;;;;;;;0.96;74.52;101822.89;1686007;84;25964;-60
2023/01/03 03:53:43;;;;;;;55.83;34.13;;;;;;;0.98;74.58;101832.98;1684694;83;25792;-59
2023/01/03 03:56:15;;;;;;;59.90;34.73;;;;;;;1.00;74.58;101836.42;1715450;82;28551;-60
2023/01/03 03:58:46;;;;;;;59.70;34.30;;;;;;;1.01;74.59;101843.47;1714257;83;25852;-60
2023/01/03 04:01:18;;;;;;;61.75;35.65;;;;;;;1.02;74.78;101843.03;1712693;83;25715;-60
2023/01/03 04:03:47;;;;;;;58.17;34.43;;;;;;;1.06;75.00;101845.53;1714955;82;25772;-60
2023/01/03 04:06:27;;;;;;;62.13;36.80;;;;;;;1.09;74.86;101850.72;1713464;83;26017;-60
2023/01/03 04:08:54;;;;;;;66.33;37.60;;;;;;;1.13;74.96;101852.81;1734889;80;27532;-60
2023/01/03 04:11:22;;;;;;;79.22;44.93;;;;;;;1.18;75.12;101857.97;1758677;81;25832;-61
2023/01/03 04:13:49;;;;;;;60.17;36.42;;;;;;;1.21;75.48;101848.59;1759241;81;26719;-60
2023/01/03 04:16:16;;;;;;;83.47;44.63;;;;;;;1.25;75.47;101855.55;1758470;81;25838;-60
2023/01/03 04:18:43;;;;;;;71.90;40.90;;;;;;;1.28;75.35;101863.86;1761391;81;25812;-60
2023/01/03 04:21:09;;;;;;;60.58;36.35;;;;;;;1.29;75.54;101866.45;1761437;81;27704;-60
2023/01/03 04:23:36;;;;;;;61.75;35.20;;;;;;;1.29;75.39;101863.80;1761572;81;25647;-60
2023/01/03 04:26:03;;;;;;;65.47;34.35;;;;;;;1.31;75.35;101864.63;1750536;80;25889;-60
2023/01/03 04:28:30;;;;;;;61.92;35.75;;;;;;;1.34;75.22;101859.67;1779410;80;25679;-60
2023/01/03 04:30:56;;;;;;;59.13;33.83;;;;;;;1.37;75.27;101863.56;1768673;80;25779;-60
2023/01/03 04:33:25;;;;;;;57.98;35.03;;;;;;;1.37;75.18;101866.21;1749566;81;27656;-61
2023/01/03 04:35:52;;;;;;;65.80;36.48;;;;;;;1.37;75.06;101871.52;1729470;82;25804;-60
2023/01/03 04:38:19;;;;;;;55.38;33.08;;;;;;;1.39;75.26;101872.34;1745373;81;25776;-60
2023/01/03 04:40:46;;;;;;;57.50;34.53;;;;;;;1.39;75.25;101871.87;1752058;81;25792;-60
2023/01/03 04:45:58;;;;;;;54.15;32.08;;;;;;;1.42;75.24;101876.20;1741982;82;27575;-60
2023/01/03 04:48:26;;;;;;;53.28;33.73;;;;;;;1.47;75.16;101876.05;1741951;82;25725;-60
2023/01/03 04:50:55;;;;;;;53.20;33.92;;;;;;;1.49;75.19;101879.52;1741936;82;26572;-60
2023/01/03 04:53:24;;;;;;;52.78;31.45;;;;;;;1.49;75.29;101890.98;1731221;81;26827;-61
2023/01/03 04:55:53;;;;;;;53.80;31.42;;;;;;;1.51;75.18;101886.98;1708509;83;25835;-60
2023/01/03 04:58:20;;;;;;;56.28;32.17;;;;;;;1.50;75.16;101895.38;1712588;83;27471;-60
2023/01/03 05:00:47;;;;;;;57.45;34.53;;;;;;;1.51;75.33;101887.83;1712612;83;25842;-60
2023/01/03 05:03:15;;;;;;;54.10;33.18;;;;;;;1.54;75.34;101886.86;1748972;80;25785;-60
2023/01/03 05:05:42;;;;;;;63.98;35.08;;;;;;;1.51;75.16;101887.83;1746167;82;26669;-60
2023/01/03 05:08:12;;;;;;;63.83;36.42;;;;;;;1.52;75.37;101892.70;1745513;80;25727;-60
2023/01/03 05:10:39;;;;;;;63.70;36.50;;;;;;;1.52;75.79;101886.06;1705679;83;27466;-61
2023/01/03 05:13:07;;;;;;;70.20;34.53;;;;;;;1.55;75.71;101896.55;1719361;81;27310;-60
2023/01/03 05:15:37;;;;;;;76.70;35.00;;;;;;;1.53;75.51;101891.75;1700974;83;25438;-60
2023/01/03 05:18:05;;;;;;;65.92;35.52;;;;;;;1.53;75.60;101899.27;1705604;84;26587;-60
2023/01/03 05:26:18;;;;;;;91.78;38.73;;;;;;;1.51;75.77;101903.75;1735298;82;25725;-60
2023/01/03 05:28:49;;;;;;;87.27;41.55;;;;;;;1.50;75.87;101905.98;1735309;80;25720;-61
2023/01/03 05:31:16;;;;;;;84.35;41.58;;;;;;;1.50;75.92;101904.66;1715161;82;25941;-61
2023/01/03 05:33:43;;;;;;;75.10;36.95;;;;;;;1.49;75.96;101913.53;1715983;82;25766;-60
2023/01/03 05:36:10;;;;;;;72.50;38.30;;;;;;;1.49;75.91;101913.53;1730199;82;27572;-60
2023/01/03 05:38:38;;;;;;;74.47;35.78;;;;;;;1.50;76.24;101918.39;1727914;80;27175;-60
2023/01/03 05:41:05;;;;;;;68.10;36.23;;;;;;;1.49;76.21;101912.67;1775649;80;25679;-61
2023/01/03 05:43:32;;;;;;;56.13;33.18;;;;;;;1.45;76.10;101907.93;1768515;80;25948;-60
2023/01/03 05:45:59;;;;;;;63.73;35.80;;;;;;;1.45;76.18;101911.91;1769208;81;25438;-61
2023/01/03 05:48:26;;;;;;;63.95;32.78;;;;;;;1.46;76.27;101914.09;1769546;81;27343;-60
2023/01/03 05:50:56;;;;;;;64.25;34.13;;;;;;;1.47;76.11;101917.16;1766458;81;25671;-60
2023/01/03 05:53:24;;;;;;;63.75;36.03;;;;;;;1.49;76.22;101919.30;1754352;81;25771;-60
2023/01/03 05:55:51;;;;;;;54.63;32.23;;;;;;;1.48;76.41;101918.42;1753896;81;25792;-60
2023/01/03 05:58:18;;;;;;;52.00;32.08;;;;;;;1.47;76.18;101922.02;1745897;80;25813;-60
2023/01/03 06:00:44;;;;;;;50.08;32.42;;;;;;;1.45;76.02;101922.52;1741409;82;28259;-60
2023/01/03 06:03:13;;;;;;;55.00;32.08;;;;;;;1.40;75.89;101929.29;1741347;82;25694;-60
2023/01/03 06:05:40;;;;;;;52.48;31.87;;;;;;;1.35;75.71;101929.02;1741474;81;25773;-60
2023/01/03 06:08:07;;;;;;;56.18;33.18;;;;;;;1.29;75.87;101939.83;1741294;82;25799;-60
2023/01/03 06:10:38;;;;;;;50.38;31.60;;;;;;;1.28;75.89;101944.24;1762780;80;25670;-60
2023/01/03 06:13:05;;;;;;;57.43;33.53;;;;;;;1.25;75.92;101947.86;1772077;80;27545;-60
2023/01/03 06:15:32;;;;;;;62.62;33.40;;;;;;;1.27;75.91;101950.93;1771972;80;26064;-59
2023/01/03 06:18:01;;;;;;;66.28;36.58;;;;;;;1.30;76.20;101957.00;1772341;80;25819;-62
2023/01/03 06:20:29;;;;;;;61.55;33.13;;;;;;;1.31;76.08;101956.53;1771908;81;26464;-60
2023/01/03 06:22:56;;;;;;;72.58;38.73;;;;;;;1.31;76.10;101964.05;1772178;80;26139;-61
2023/01/03 06:25:23;;;;;;;65.75;36.48;;;;;;;1.31;76.30;101961.83;1772072;81;27486;-61
2023/01/03 06:27:49;;;;;;;54.88;32.60;;;;;;;1.31;76.48;101969.34;1770966;80;25918;-60
2023/01/03 06:30:16;;;;;;;57.05;31.45;;;;;;;1.36;76.75;101967.41;1769672;81;25826;-60
2023/01/03 06:32:44;;;;;;;58.15;32.80;;;;;;;1.37;76.62;101971.80;1772651;79;25795;-60
2023/01/03 06:35:12;;;;;;;52.90;32.65;;;;;;;1.40;76.72;101974.37;1788879;79;25766;-61
2023/01/03 06:37:39;;;;;;;52.67;31.35;;;;;;;1.40;76.37;101976.13;1774540;79;27450;-61
2023/01/03 06:40:08;;;;;;;51.08;31.82;;;;;;;1.39;76.35;101973.95;1771336;80;25718;-60
2023/01/03 06:42:43;;;;;;;49.05;30.32;;;;;;;1.42;76.32;101983.59;1769401;81;26595;-60
2023/01/03 06:53:39;;;;;;;46.68;28.40;;;;;;;1.46;76.12;101992.31;1782181;79;25771;-60
2023/01/03 06:56:08;;;;;;;44.63;30.35;;;;;;;1.44;75.94;101996.80;1772426;80;25824;-61
2023/01/03 06:58:36;;;;;;;46.28;30.05;;;;;;;1.46;76.04;101995.86;1772615;80;26332;-60
2023/01/03 07:01:05;;;;;;;56.23;35.08;;;;;;;1.48;76.24;101996.65;1772052;80;25707;-60
2023/01/03 07:03:32;;;;;;;43.58;28.38;;;;;;;1.52;76.23;102000.96;1772089;80;28152;-61
2023/01/03 07:05:59;;;;;;;47.10;28.00;;;;;;;1.53;76.14;102001.38;1771700;81;25758;-60
2023/01/03 07:08:26;;;;;;;43.10;28.35;;;;;;;1.59;76.25;102008.72;1772129;80;26371;-61
2023/01/03 07:10:54;;;;;;;43.75;28.32;;;;;;;1.64;76.11;102014.77;1778851;80;25738;-60
2023/01/03 07:16:12;;;;;;;42.80;26.73;;;;;;;1.62;75.86;102017.45;1786845;79;27481;-60
2023/01/03 07:18:39;;;;;;;45.17;28.95;;;;;;;1.68;76.04;102022.58;1793268;78;25785;-61
2023/01/03 07:21:07;;;;;;;51.50;29.72;;;;;;;1.69;76.01;102026.98;1792854;79;25622;-60
2023/01/03 07:23:33;;;;;;;44.00;28.65;;;;;;;1.71;75.96;102025.12;1794096;79;25818;-60
2023/01/03 07:26:01;;;;;;;54.58;34.63;;;;;;;1.74;75.87;102025.95;1789011;79;25753;-60
2023/01/03 07:28:28;;;;;;;49.75;29.37;;;;;;;1.83;75.88;102031.84;1741514;81;29622;-61
2023/01/03 07:31:06;;;;;;;49.10;28.05;;;;;;;1.88;75.92;102025.92;1710686;82;25909;-61
2023/01/03 07:33:38;;;;;;;49.08;29.52;;;;;;;1.96;76.03;102034.09;1704479;82;25951;-61
2023/01/03 07:36:08;;;;;;;38.65;26.12;;;;;;;2.02;76.00;102041.84;1746428;81;26554;-61
2023/01/03 07:38:36;;;;;;;39.05;25.50;;;;;;;2.06;75.99;102041.31;1719644;82;25776;-61
2023/01/03 07:41:07;;;;;;;43.83;26.97;;;;;;;2.09;75.84;102039.87;1743146;81;27473;-61
2023/01/03 07:43:37;;;;;;;45.40;26.48;;;;;;;2.16;76.02;102047.59;1743562;81;25756;-61
2023/01/03 07:46:23;;;;;;;43.70;28.05;;;;;;;2.19;75.86;102036.88;1748630;82;25702;-61
2023/01/03 07:48:55;;;;;;;47.17;28.17;;;;;;;2.25;75.93;102039.77;1748678;82;26771;-61
2023/01/03 07:51:23;;;;;;;56.90;32.80;;;;;;;2.34;76.19;102043.45;1738470;82;25797;-63
2023/01/03 07:53:52;;;;;;;57.38;34.80;;;;;;;2.40;76.10;102047.69;1720095;82;27511;-62
2023/01/03 07:56:20;;;;;;;61.30;37.33;;;;;;;2.48;76.09;102047.44;1718069;82;26146;-60
2023/01/03 07:58:50;;;;;;;57.95;34.98;;;;;;;2.56;76.15;102047.16;1714095;82;25851;-60
2023/01/03 08:01:23;;;;;;;58.83;36.38;;;;;;;2.65;76.19;102048.16;1725309;82;25837;-61
2023/01/03 08:03:52;;;;;;;66.10;37.50;;;;;;;2.74;76.07;102049.65;1719935;82;25792;-61
2023/01/03 08:06:22;;;;;;;65.10;36.53;;;;;;;2.87;76.06;102044.28;1714770;83;28147;-60
2023/01/03 08:14:04;;;;;;;57.70;33.80;;;;;;;3.24;76.17;102059.38;1705237;83;25799;-61
2023/01/03 08:16:31;;;;;;;52.10;32.20;;;;;;;3.37;76.10;102061.11;1707798;84;25750;-61
2023/01/03 08:18:57;;;;;;;50.55;31.35;;;;;;;3.43;75.75;102057.77;1706083;84;28358;-61
2023/01/03 08:21:24;;;;;;;52.58;30.68;;;;;;;3.52;75.75;102060.52;1707522;84;25768;-61
2023/01/03 08:23:50;;;;;;;50.63;32.45;;;;;;;3.71;75.74;102059.37;1707407;83;25795;-61
2023/01/03 08:26:17;;;;;;;50.88;32.25;;;;;;;4.10;75.71;102056.50;1707508;84;25849;-61
2023/01/03 08:28:44;;;;;;;52.62;32.33;;;;;;;4.68;74.89;102064.30;1707759;84;25806;-61
2023/01/03 08:31:18;;;;;;;47.53;30.25;;;;;;;5.23;74.19;102057.00;1661541;84;27559;-60
2023/01/03 08:33:57;;;;;;;50.80;34.35;;;;;;;5.78;73.48;102060.71;1708819;83;25794;-61
2023/01/03 08:36:28;;;;;;;50.15;33.08;;;;;;;6.22;72.78;102054.16;1712421;83;25797;-61
2023/01/03 08:39:03;;;;;;;51.53;33.53;;;;;;;6.76;72.11;102052.78;1685834;83;25816;-61
2023/01/03 08:41:33;;;;;;;52.23;32.98;;;;;;;7.29;71.28;102055.36;1694140;83;25756;-61
2023/01/03 08:44:04;;;;;;;59.53;34.63;;;;;;;7.77;70.23;102048.70;1658383;85;28325;-61
2023/01/03 08:46:33;;;;;;;54.45;36.83;;;;;;;8.24;69.84;102050.94;1736272;82;25849;-61
2023/01/03 08:49:00;;;;;;;58.13;38.10;;;;;;;8.73;69.28;102041.37;1736496;82;25747;-61
2023/01/03 08:51:28;;;;;;;55.88;37.05;;;;;;;9.12;68.51;102040.35;1735636;82;25793;-61
2023/01/03 08:53:55;;;;;;;55.83;37.03;;;;;;;9.55;67.88;102046.16;1711250;83;25490;-61
2023/01/03 08:56:22;;;;;;;78.57;39.38;;;;;;;10.00;67.28;102045.47;1712472;83;27469;-61
2023/01/03 08:58:49;;;;;;;74.92;43.85;;;;;;;10.52;66.52;102032.70;1712635;83;25806;-62
2023/01/03 09:01:16;;;;;;;74.17;45.63;;;;;;;11.02;64.65;102035.55;1712560;83;25686;-61
2023/01/03 09:03:43;;;;;;;67.75;43.90;;;;;;;11.37;62.10;102032.16;1712703;83;25786;-61
2023/01/03 09:06:10;;;;;;;71.80;42.88;;;;;;;11.56;60.57;102027.17;1712455;83;25732;-61
2023/01/03 09:08:37;;;;;;;70.50;44.38;;;;;;;11.78;60.72;102025.61;1711407;83;28219;-61
2023/01/03 09:11:06;;;;;;;79.15;43.68;;;;;;;12.04;60.81;102029.58;1718652;82;25786;-62
2023/01/03 09:13:34;;;;;;;81.53;44.45;;;;;;;12.48;60.71;102017.24;1713116;83;25748;-62
2023/01/03 09:16:06;;;;;;;79.65;46.00;;;;;;;12.87;59.42;102014.72;1712418;82;25792;-61
2023/01/03 09:18:34;;;;;;;80.83;42.93;;;;;;;13.17;58.21;102010.58;1711948;82;26491;-62
2023/01/03 09:21:02;;;;;;;84.70;44.15;;;;;;;13.44;57.78;102016.49;1733140;82;28258;-62
2023/01/03 09:23:30;;;;;;;92.50;45.30;;;;;;;13.75;57.54;102016.70;1733101;82;25783;-62
2023/01/03 09:25:58;;;;;;;74.20;43.73;;;;;;;14.16;56.23;102017.42;1690687;81;25778;-62
2023/01/03 09:28:25;;;;;;;76.65;41.53;;;;;;;14.39;54.72;102019.53;1732598;82;26611;-62
2023/01/03 09:30:53;;;;;;;79.90;40.67;;;;;;;14.72;53.49;102019.00;1713957;81;25670;-62
2023/01/03 09:33:20;;;;;;;59.67;36.53;;;;;;;14.90;52.82;102015.68;1708158;83;27586;-62
2023/01/03 09:35:47;;;;;;;65.65;36.13;;;;;;;15.01;52.36;102012.41;1708365;83;25844;-62
2023/01/03 09:38:14;;;;;;;63.15;37.75;;;;;;;15.23;51.43;102024.56;1716124;83;25732;-62
2023/01/03 09:40:44;;;;;;;58.63;36.28;;;;;;;15.42;51.36;102016.47;1720140;83;25779;-62
2023/01/03 09:43:18;;;;;;;57.23;35.78;;;;;;;15.72;50.77;102013.86;1720229;83;26168;-62
2023/01/03 09:45:53;;;;;;;54.95;35.52;;;;;;;15.92;49.92;102018.33;1714985;83;27505;-62
2023/01/03 09:48:36;;;;;;;59.18;38.85;;;;;;;16.19;50.18;102017.30;1733659;82;26174;-61
2023/01/03 10:03:42;;;;;;;49.85;34.63;;;;;;;16.54;50.03;102011.25;1710222;83;25814;-63
2023/01/03 10:06:08;;;;;;;40.78;29.07;;;;;;;17.92;42.64;101998.44;1717971;83;25791;-62
2023/01/03 10:08:52;;;;;;;42.43;27.02;;;;;;;17.97;41.08;101997.52;1762744;80;25800;-63
2023/01/03 10:11:22;;;;;;;;;;;;;;;17.91;40.75;101999.45;1770056;80;26175;-62
2023/01/03 10:14:23;;;;;;;40.98;27.65;;;;;;;17.89;42.77;101999.61;1780357;80;28298;-62
2023/01/03 10:17:16;;;;;;;45.98;28.60;;;;;;;18.06;40.16;101999.31;1780850;79;26156;-62
2023/01/03 10:20:10;;;;;;;43.17;29.77;;;;;;;18.04;40.07;101995.87;1732014;82;45907;-62
2023/01/03 10:22:39;;;;;;;40.83;28.60;;;;;;;18.07;40.45;101993.34;1727944;81;25828;-62
2023/01/03 10:25:17;;;;;;;46.37;28.57;;;;;;;18.19;39.94;101986.66;1692965;83;25827;-62
2023/01/03 10:27:56;;;;;;;49.35;28.87;;;;;;;18.25;39.81;101991.95;1764753;80;27494;-62
2023/01/03 10:30:46;;;;;;;61.50;29.50;;;;;;;18.36;40.01;101990.88;1740240;80;26001;-62
2023/01/03 10:33:34;;;;;;;48.35;26.30;;;;;;;18.50;40.39;101991.66;1712425;81;25761;-62
2023/01/03 10:36:01;;;;;;;66.00;29.90;;;;;;;18.73;39.30;101987.06;1795715;78;25918;-62
2023/01/03 10:38:29;;;;;;;59.42;28.67;;;;;;;18.85;39.87;101987.12;1797636;78;25667;-62
2023/01/03 10:41:00;;;;;;;47.60;32.83;;;;;;;19.04;39.14;101981.98;1786093;79;28407;-62
2023/01/03 10:43:40;;;;;;;51.98;29.27;;;;;;;19.20;39.15;101978.98;1774355;80;25824;-62
2023/01/03 10:46:24;;;;;;;50.30;29.67;;;;;;;19.36;40.11;101982.30;1775923;80;25737;-62
2023/01/03 10:48:54;;;;;;;50.67;30.92;;;;;;;19.54;38.83;101973.45;1765638;80;26433;-62
2023/01/03 10:51:31;;;;;;;46.58;29.37;;;;;;;19.67;38.97;101966.67;1774115;80;25722;-62
2023/01/03 10:54:02;;;;;;;43.25;29.55;;;;;;;19.75;39.43;101972.15;1779465;80;28401;-61
2023/01/03 10:56:30;;;;;;;48.98;29.75;;;;;;;19.85;39.22;101965.22;1777857;80;25794;-61
2023/01/03 10:59:30;;;;;;;48.02;28.73;;;;;;;20.05;38.64;101964.87;1755580;80;25700;-61
2023/01/03 11:02:15;;;;;;;43.38;30.15;;;;;;;20.23;38.48;101963.35;1777694;80;25878;-61
2023/01/03 11:04:44;;;;;;;52.35;29.20;;;;;;;20.33;37.74;101963.50;1779278;80;25821;-61
2023/01/03 11:07:14;;;;;;;58.73;29.48;;;;;;;20.42;37.67;101961.63;1779283;80;27516;-62
2023/01/03 11:09:55;;;;;;;76.30;30.65;;;;;;;20.47;36.94;101950.19;1777544;80;25781;-62
2023/01/03 11:12:35;;;;;;;60.73;30.52;;;;;;;20.52;37.27;101949.66;1776818;80;25685;-62
2023/01/03 11:15:19;;;;;;;56.33;27.50;;;;;;;20.62;36.83;101943.46;1779412;80;25773;-61
2023/01/03 11:18:02;;;;;;;52.00;28.23;;;;;;;20.73;36.72;101943.63;1762876;80;25831;-61
2023/01/03 11:21:03;;;;;;;43.60;26.33;;;;;;;20.87;36.37;101935.25;1738956;82;27466;-61
2023/01/03 11:24:01;;;;;;;43.58;29.00;;;;;;;20.92;36.00;101931.45;1732147;82;25810;-61
2023/01/03 11:26:52;;;;;;;38.73;27.65;;;;;;;20.85;36.04;101936.77;1748491;82;25787;-61
2023/01/03 11:29:33;;;;;;;38.38;28.02;;;;;;;20.61;36.40;101939.89;1743288;80;25941;-61
2023/01/03 11:32:30;;;;;;;40.75;28.85;;;;;;;20.32;36.47;101940.46;1746917;81;25708;-61
2023/01/03 11:35:08;;;;;;;47.10;30.70;;;;;;;19.94;36.82;101940.12;1758265;81;27529;-61
2023/01/03 11:37:40;;;;;;;48.98;27.85;;;;;;;19.58;37.51;101936.28;1678884;81;25737;-61
2023/01/03 11:40:24;;;;;;;50.47;29.97;;;;;;;19.27;38.09;101936.91;1742694;81;25732;-61
2023/01/03 11:43:31;;;;;;;42.33;30.12;;;;;;;18.97;38.58;101935.91;1760871;80;26645;-61
2023/01/03 11:46:49;;;;;;;42.67;31.27;;;;;;;18.78;38.42;101931.02;1756398;80;25590;-61
2023/01/03 11:49:49;;;;;;;43.52;31.30;;;;;;;18.51;38.92;101935.31;1779130;80;27732;-61
2023/01/03 11:52:33;;;;;;;46.23;30.97;;;;;;;18.17;39.31;101936.94;1778308;80;25876;-61
2023/01/03 11:55:28;;;;;;;46.02;31.42;;;;;;;17.87;39.82;101938.17;1779377;80;25735;-61
2023/01/03 11:58:21;;;;;;;49.35;31.35;;;;;;;17.55;40.39;101934.98;1778400;80;26829;-61
2023/01/03 12:01:00;;;;;;;50.80;32.70;;;;;;;17.22;41.10;101930.51;1767246;80;25763;-60
2023/01/03 12:03:48;;;;;;;46.73;32.20;;;;;;;17.07;41.66;101936.11;1761655;80;28172;-61
2023/01/03 12:06:32;;;;;;;50.40;33.88;;;;;;;16.92;42.12;101928.91;1760978;81;25900;-61
2023/01/03 12:09:26;;;;;;;46.68;33.38;;;;;;;16.86;42.26;101927.16;1750497;80;25698;-60
2023/01/03 12:12:07;;;;;;;46.63;32.33;;;;;;;16.68;42.64;101925.71;1762690;81;25796;-60
2023/01/03 12:14:52;;;;;;;50.05;35.35;;;;;;;16.50;42.92;101922.05;1749742;81;25464;-61
2023/01/03 12:17:24;;;;;;;;;;;;;;;16.29;43.41;101927.19;1751413;82;27476;-61
2023/01/03 12:20:06;;;;;;;66.70;37.33;;;;;;;16.19;43.41;101924.47;1736176;81;25742;-61
2023/01/03 12:22:43;;;;;;;52.88;35.08;;;;;;;16.10;43.93;101925.34;1730180;81;25680;-61
2023/01/03 12:25:31;;;;;;;54.50;35.25;;;;;;;15.94;44.26;101927.30;1748644;80;25778;-61
2023/01/03 12:28:12;;;;;;;45.25;34.05;;;;;;;15.78;44.55;101930.03;1748726;81;27356;-60
2023/01/03 12:31:10;;;;;;;56.35;38.83;;;;;;;15.64;44.91;101931.82;1751134;81;27531;-60
2023/01/03 12:34:00;;;;;;;48.13;33.75;;;;;;;15.43;45.28;101934.64;1750071;81;25986;-61
2023/01/03 12:37:01;;;;;;;48.08;31.50;;;;;;;15.21;45.80;101933.87;1746721;81;26080;-61
2023/01/03 12:39:55;;;;;;;42.60;31.60;;;;;;;14.93;46.31;101939.55;1756491;81;25918;-60
2023/01/03 12:42:30;;;;;;;45.37;32.10;;;;;;;14.70;47.29;101945.17;1756872;81;26395;-60
2023/01/03 12:45:31;;;;;;;48.65;30.02;;;;;;;14.45;47.84;101941.84;1756654;81;27482;-61